Time;durP1;ratioP1;P1;durP2;ratioP2;P2;SDS_P1;SDS_P2;PMS_P1;PMS_P2;Temp;Humidity;BMP_temperature;BMP_pressure;BME280_temperature;BME280_humidity;BME280_pressure;Samples;Min_cycle;Max_cycle;Signal;HPM_P1;HPM_P2
2023/12/07 00:00:35;;;;;;;13.77;9.70;;;6.30;99.90;;;;;;5012277;28;20591;-68
2023/12/07 00:03:01;;;;;;;15.53;10.70;;;6.30;99.90;;;;;;5009094;28;20239;-67
2023/12/07 00:05:26;;;;;;;14.47;10.50;;;6.30;99.90;;;;;;5014094;28;20192;-67
2023/12/07 00:07:52;;;;;;;13.13;10.17;;;6.20;99.90;;;;;;5010350;28;20192;-67
2023/12/07 00:10:17;;;;;;;14.10;9.90;;;6.30;99.90;;;;;;5012523;28;20184;-67
2023/12/07 00:12:43;;;;;;;14.90;9.47;;;6.40;99.90;;;;;;5010517;28;20706;-68
2023/12/07 00:15:09;;;;;;;15.17;10.10;;;6.40;99.90;;;;;;5009076;28;20311;-68
2023/12/07 00:17:34;;;;;;;13.97;10.57;;;6.40;99.90;;;;;;5011246;28;20212;-67
2023/12/07 00:20:00;;;;;;;16.27;10.47;;;6.40;99.90;;;;;;5016304;28;20564;-66
2023/12/07 00:22:26;;;;;;;13.13;10.63;;;6.30;99.90;;;;;;5014312;28;20185;-65
2023/12/07 00:24:52;;;;;;;17.00;10.77;;;6.30;99.90;;;;;;5016508;28;20184;-65
2023/12/07 00:27:18;;;;;;;14.23;10.00;;;6.30;99.90;;;;;;5018037;28;20259;-66
2023/12/07 00:29:44;;;;;;;12.90;9.80;;;6.40;99.90;;;;;;5017714;28;20658;-66
2023/12/07 00:32:09;;;;;;;14.20;9.87;;;6.40;99.90;;;;;;5015101;28;20429;-67
2023/12/07 00:34:35;;;;;;;13.83;10.03;;;6.20;99.90;;;;;;5014008;28;20205;-66
2023/12/07 00:37:00;;;;;;;14.00;10.33;;;6.20;99.90;;;;;;5013778;28;20706;-67
2023/12/07 00:39:26;;;;;;;11.70;9.27;;;6.20;99.90;;;;;;5018724;28;20191;-67
2023/12/07 00:41:52;;;;;;;14.10;10.33;;;6.20;99.90;;;;;;5017544;28;20184;-66
2023/12/07 00:44:18;;;;;;;14.90;9.10;;;6.20;99.90;;;;;;5018535;28;20304;-67
2023/12/07 00:46:43;;;;;;;17.40;10.07;;;6.10;99.90;;;;;;5017107;28;20503;-67
2023/12/07 00:49:09;;;;;;;17.53;10.00;;;6.20;99.90;;;;;;5015216;28;20193;-67
2023/12/07 00:51:34;;;;;;;16.40;10.10;;;6.20;99.90;;;;;;5015256;28;20185;-67
2023/12/07 00:54:00;;;;;;;13.60;9.80;;;6.20;99.90;;;;;;5018828;28;21452;-67
2023/12/07 00:56:26;;;;;;;14.40;9.47;;;6.20;99.90;;;;;;5013825;28;20250;-67
2023/12/07 00:58:51;;;;;;;11.07;8.77;;;6.40;99.90;;;;;;5014281;28;20177;-67
2023/12/07 01:01:17;;;;;;;14.57;9.50;;;6.30;99.90;;;;;;5018467;28;20181;-67
2023/12/07 01:03:43;;;;;;;15.27;10.27;;;6.20;99.90;;;;;;5020919;28;20207;-67
2023/12/07 01:06:11;;;;;;;12.80;9.03;;;6.30;99.90;;;;;;5018047;28;22195;-67
2023/12/07 01:08:37;;;;;;;14.83;10.33;;;6.20;99.90;;;;;;5021113;28;20196;-67
2023/12/07 01:11:03;;;;;;;13.77;8.90;;;6.20;99.90;;;;;;5016248;28;20434;-67
2023/12/07 01:13:29;;;;;;;14.13;10.20;;;6.20;99.90;;;;;;5019851;28;20447;-67
2023/12/07 01:15:55;;;;;;;15.63;10.40;;;6.20;99.90;;;;;;5019620;28;20430;-67
2023/12/07 01:18:20;;;;;;;14.83;9.40;;;6.20;99.90;;;;;;5020126;28;20180;-66
2023/12/07 01:20:46;;;;;;;14.80;9.00;;;6.20;99.90;;;;;;5013945;28;20447;-67
2023/12/07 01:23:12;;;;;;;11.30;8.83;;;6.30;99.90;;;;;;5020823;28;20284;-66
2023/12/07 01:25:37;;;;;;;15.13;9.67;;;6.30;99.90;;;;;;5012600;28;20982;-66
2023/12/07 01:28:03;;;;;;;13.27;8.80;;;6.20;99.90;;;;;;5014410;28;20188;-67
2023/12/07 01:30:29;;;;;;;11.97;9.37;;;6.10;99.90;;;;;;5018620;28;20181;-67
2023/12/07 01:32:55;;;;;;;13.40;9.20;;;6.20;99.90;;;;;;5012491;28;20291;-66
2023/12/07 01:35:21;;;;;;;12.80;9.80;;;6.20;99.90;;;;;;5011580;28;20201;-67
2023/12/07 01:37:46;;;;;;;15.03;10.50;;;6.30;99.90;;;;;;5013876;28;20445;-66
2023/12/07 01:40:12;;;;;;;15.00;8.37;;;6.20;99.90;;;;;;5020820;28;20180;-67
2023/12/07 01:42:38;;;;;;;12.57;9.90;;;6.30;99.90;;;;;;5019334;28;20169;-67
2023/12/07 01:45:05;;;;;;;12.03;9.37;;;6.30;99.90;;;;;;5015925;28;20236;-66
2023/12/07 01:47:33;;;;;;;14.83;8.70;;;6.20;99.90;;;;;;5015982;28;20657;-67
2023/12/07 01:50:00;;;;;;;13.83;9.13;;;6.20;99.90;;;;;;5021407;28;20431;-66
2023/12/07 01:52:27;;;;;;;13.30;9.67;;;6.10;99.90;;;;;;5024671;28;20430;-66
2023/12/07 01:54:53;;;;;;;13.47;9.73;;;6.10;99.90;;;;;;5019835;28;20471;-66
2023/12/07 01:57:20;;;;;;;20.00;10.07;;;6.00;99.90;;;;;;5018159;28;20506;-66
2023/12/07 01:59:45;;;;;;;14.43;10.17;;;6.00;99.90;;;;;;5022236;28;20180;-66
2023/12/07 02:02:11;;;;;;;13.17;9.60;;;6.00;99.90;;;;;;5019916;28;21848;-66
2023/12/07 02:04:37;;;;;;;16.53;10.30;;;6.00;99.90;;;;;;5021578;28;20236;-66
2023/12/07 02:07:04;;;;;;;16.10;9.83;;;6.00;99.90;;;;;;5022554;28;20203;-66
2023/12/07 02:09:30;;;;;;;15.27;10.20;;;6.00;99.90;;;;;;5021023;28;20937;-66
2023/12/07 02:11:55;;;;;;;13.87;9.57;;;6.00;99.90;;;;;;5017870;28;20428;-66
2023/12/07 02:14:21;;;;;;;17.27;9.87;;;6.00;99.90;;;;;;5020629;28;20590;-66
2023/12/07 02:17:05;;;;;;;13.13;8.83;;;5.90;99.90;;;;;;5019921;28;20192;-66
2023/12/07 02:19:52;;;;;;;15.97;10.00;;;5.90;99.90;;;;;;5012803;28;20404;-66
2023/12/07 02:22:26;;;;;;;12.63;9.40;;;5.90;99.90;;;;;;5020951;28;20427;-66
2023/12/07 02:25:17;;;;;;;13.10;9.33;;;5.80;99.90;;;;;;5020891;28;20806;-66
2023/12/07 02:27:47;;;;;;;11.50;9.47;;;5.80;99.90;;;;;;5015322;28;20783;-66
2023/12/07 02:30:13;;;;;;;13.43;9.90;;;5.70;99.90;;;;;;5014386;28;20510;-66
2023/12/07 02:32:40;;;;;;;12.60;10.27;;;5.70;99.90;;;;;;5015605;28;20420;-66
2023/12/07 02:35:08;;;;;;;14.33;10.10;;;5.70;99.90;;;;;;5012885;28;20464;-66
2023/12/07 02:37:39;;;;;;;17.87;9.43;;;5.60;99.90;;;;;;5021200;28;20418;-66
2023/12/07 02:40:10;;;;;;;15.30;11.00;;;5.60;99.90;;;;;;5014937;28;20417;-66
2023/12/07 02:42:37;;;;;;;18.00;11.40;;;5.50;99.90;;;;;;5020214;28;20434;-66
2023/12/07 02:45:03;;;;;;;19.40;10.90;;;5.50;99.90;;;;;;5020619;28;20454;-66
2023/12/07 02:47:29;;;;;;;14.23;10.90;;;5.60;99.90;;;;;;5022266;28;20411;-66
2023/12/07 02:49:55;;;;;;;15.00;10.90;;;5.60;99.90;;;;;;5013545;28;20435;-66
2023/12/07 02:52:20;;;;;;;20.07;13.40;;;5.50;99.90;;;;;;5018847;28;20184;-66
2023/12/07 02:54:46;;;;;;;17.67;11.00;;;5.50;99.90;;;;;;5010706;28;20633;-66
2023/12/07 02:57:11;;;;;;;14.83;10.83;;;5.50;99.90;;;;;;5020327;28;20185;-66
2023/12/07 02:59:37;;;;;;;14.60;11.03;;;5.50;99.90;;;;;;5013979;28;20177;-66
2023/12/07 03:02:03;;;;;;;20.77;13.77;;;5.50;99.90;;;;;;5014143;28;20267;-66
2023/12/07 03:04:29;;;;;;;15.47;10.70;;;5.50;99.90;;;;;;5008125;28;20220;-66
2023/12/07 03:06:54;;;;;;;16.57;11.03;;;5.50;99.90;;;;;;5010862;28;20448;-66
2023/12/07 03:09:20;;;;;;;15.70;10.63;;;5.50;99.90;;;;;;5014894;28;20536;-66
2023/12/07 03:11:45;;;;;;;15.93;10.67;;;5.50;99.90;;;;;;5017240;28;20654;-66
2023/12/07 03:14:11;;;;;;;13.83;10.77;;;5.60;99.90;;;;;;5015291;28;20343;-66
2023/12/07 03:16:38;;;;;;;15.90;10.83;;;5.60;99.90;;;;;;5019131;28;20213;-66
2023/12/07 03:19:03;;;;;;;16.03;11.37;;;5.40;99.90;;;;;;5009829;28;20181;-66
2023/12/07 03:21:29;;;;;;;16.07;10.90;;;5.30;99.90;;;;;;5012378;28;20495;-66
2023/12/07 03:23:54;;;;;;;15.27;10.90;;;5.30;99.90;;;;;;5015837;28;20654;-66
2023/12/07 03:26:20;;;;;;;15.30;10.70;;;5.30;99.90;;;;;;5014052;28;20180;-66
2023/12/07 03:28:46;;;;;;;17.13;11.80;;;5.40;99.90;;;;;;5020614;28;20173;-66
2023/12/07 03:31:11;;;;;;;15.57;11.27;;;5.30;99.90;;;;;;5016926;28;20445;-66
2023/12/07 03:33:38;;;;;;;16.47;11.07;;;5.30;99.90;;;;;;5018125;28;20562;-66
2023/12/07 03:36:04;;;;;;;13.97;11.20;;;5.20;99.90;;;;;;5011819;28;20619;-66
2023/12/07 03:38:30;;;;;;;15.37;11.23;;;5.20;99.90;;;;;;5011117;28;20419;-66
2023/12/07 03:40:55;;;;;;;15.60;11.80;;;5.20;99.90;;;;;;5012422;28;20952;-66
2023/12/07 03:43:21;;;;;;;18.10;12.07;;;5.30;99.90;;;;;;5014009;28;20458;-66
2023/12/07 03:45:47;;;;;;;18.63;13.47;;;5.30;99.90;;;;;;5010208;28;20188;-66
2023/12/07 03:48:13;;;;;;;19.00;12.43;;;5.30;99.90;;;;;;5017514;28;20184;-66
2023/12/07 03:50:38;;;;;;;18.10;13.00;;;5.20;99.90;;;;;;5017586;28;20289;-66
2023/12/07 03:53:04;;;;;;;20.87;13.03;;;5.10;99.90;;;;;;5012365;28;20863;-66
2023/12/07 03:55:29;;;;;;;23.03;12.67;;;5.20;99.90;;;;;;5013548;28;20658;-66
2023/12/07 03:57:55;;;;;;;18.23;12.97;;;5.20;99.90;;;;;;5014872;28;20173;-66
2023/12/07 04:00:21;;;;;;;18.23;13.40;;;5.10;99.90;;;;;;5017401;28;20370;-66
2023/12/07 04:02:46;;;;;;;18.53;13.23;;;5.00;99.90;;;;;;5017331;28;20537;-66
2023/12/07 04:05:12;;;;;;;19.17;13.47;;;5.00;99.90;;;;;;5014833;28;20650;-66
2023/12/07 04:07:38;;;;;;;18.33;13.93;;;5.00;99.90;;;;;;5016570;28;20281;-66
2023/12/07 04:10:06;;;;;;;17.27;12.90;;;4.90;99.90;;;;;;5012000;28;20188;-66
2023/12/07 04:12:31;;;;;;;20.23;13.17;;;4.90;99.90;;;;;;5011475;28;20184;-65
2023/12/07 04:14:57;;;;;;;23.63;13.80;;;4.90;99.90;;;;;;5014913;28;20472;-66
2023/12/07 04:17:23;;;;;;;19.00;13.90;;;4.90;99.90;;;;;;5012563;28;20912;-66
2023/12/07 04:19:48;;;;;;;15.57;11.80;;;4.90;99.90;;;;;;5020523;28;20295;-65
2023/12/07 04:22:14;;;;;;;20.23;13.90;;;4.80;99.90;;;;;;5013856;28;20546;-66
2023/12/07 04:24:39;;;;;;;19.73;13.93;;;4.80;99.90;;;;;;5021480;28;20740;-66
2023/12/07 04:27:05;;;;;;;18.33;12.73;;;4.80;99.90;;;;;;5025021;28;20226;-66
2023/12/07 04:29:30;;;;;;;16.70;13.30;;;4.70;99.90;;;;;;5021307;28;20185;-66
2023/12/07 04:31:56;;;;;;;23.90;13.67;;;4.70;99.90;;;;;;5025300;28;20215;-66
2023/12/07 04:34:21;;;;;;;23.73;14.37;;;4.70;99.90;;;;;;5014951;28;20305;-66
2023/12/07 04:36:47;;;;;;;17.70;11.90;;;4.70;99.90;;;;;;5024238;28;20196;-67
2023/12/07 04:39:12;;;;;;;16.90;11.77;;;4.70;99.90;;;;;;5014456;28;20192;-66
2023/12/07 04:41:38;;;;;;;18.27;12.37;;;4.70;99.90;;;;;;5013344;28;20189;-66
2023/12/07 04:44:04;;;;;;;19.27;12.23;;;4.70;99.90;;;;;;5010491;28;20212;-66
2023/12/07 04:46:29;;;;;;;14.13;11.13;;;4.70;99.90;;;;;;5018670;28;20192;-66
2023/12/07 04:48:55;;;;;;;12.30;10.00;;;4.70;99.90;;;;;;5013215;28;20240;-66
2023/12/07 04:51:20;;;;;;;15.23;10.27;;;4.60;99.90;;;;;;5012098;28;20655;-66
2023/12/07 04:53:47;;;;;;;17.83;11.00;;;4.50;99.90;;;;;;5013630;28;20601;-66
2023/12/07 04:56:13;;;;;;;14.97;9.20;;;4.50;99.90;;;;;;5011340;28;20535;-66
2023/12/07 04:58:39;;;;;;;16.03;10.13;;;4.50;99.90;;;;;;5015170;28;20419;-66
2023/12/07 05:01:04;;;;;;;13.23;10.33;;;4.50;99.90;;;;;;5013047;28;20828;-66
2023/12/07 05:03:30;;;;;;;14.90;10.00;;;4.50;99.90;;;;;;5013905;28;20621;-66
2023/12/07 05:05:55;;;;;;;15.93;10.10;;;4.40;99.90;;;;;;5011807;28;20263;-66
2023/12/07 05:08:21;;;;;;;13.60;10.30;;;4.40;99.90;;;;;;5013570;28;20215;-66
2023/12/07 05:10:46;;;;;;;14.07;10.57;;;4.40;99.90;;;;;;5015154;28;20183;-66
2023/12/07 05:13:12;;;;;;;13.30;9.60;;;4.40;99.90;;;;;;5018240;28;20207;-66
2023/12/07 05:15:37;;;;;;;16.20;9.83;;;4.40;99.90;;;;;;5015122;28;20299;-66
2023/12/07 05:18:03;;;;;;;13.40;9.73;;;4.40;99.90;;;;;;5013138;28;20196;-66
2023/12/07 05:20:29;;;;;;;14.83;10.40;;;4.40;99.90;;;;;;5013162;28;20197;-66
2023/12/07 05:22:55;;;;;;;18.00;11.90;;;4.30;99.90;;;;;;5012615;28;20201;-66
2023/12/07 05:25:20;;;;;;;16.03;10.23;;;4.30;99.90;;;;;;5009479;28;20544;-66
2023/12/07 05:27:46;;;;;;;15.60;11.23;;;4.20;99.90;;;;;;5013607;28;20255;-66
2023/12/07 05:30:12;;;;;;;13.90;10.40;;;4.30;99.90;;;;;;5018663;28;20192;-66
2023/12/07 05:32:38;;;;;;;12.30;9.10;;;4.30;99.90;;;;;;5014868;28;20271;-66
2023/12/07 05:35:05;;;;;;;17.27;10.53;;;4.20;99.90;;;;;;5014112;28;20566;-66
2023/12/07 05:37:31;;;;;;;12.40;9.10;;;4.20;99.90;;;;;;5014040;28;20176;-66
2023/12/07 05:39:57;;;;;;;13.73;9.60;;;4.20;99.90;;;;;;5015066;28;20946;-66
2023/12/07 05:42:22;;;;;;;12.70;9.03;;;4.20;99.90;;;;;;5014636;28;20427;-67
2023/12/07 05:44:48;;;;;;;15.43;10.20;;;4.20;99.90;;;;;;5016900;28;20652;-66
2023/12/07 05:47:13;;;;;;;13.37;9.87;;;4.20;99.90;;;;;;5012420;28;20189;-67
2023/12/07 05:49:39;;;;;;;12.23;9.83;;;4.20;99.90;;;;;;5021176;28;20184;-66
2023/12/07 05:52:05;;;;;;;14.00;8.57;;;4.20;99.90;;;;;;5016249;28;20193;-66
2023/12/07 05:54:30;;;;;;;15.33;10.50;;;4.20;99.90;;;;;;5018272;28;20216;-67
2023/12/07 05:56:56;;;;;;;15.10;10.17;;;4.20;99.90;;;;;;5017462;28;20212;-67
2023/12/07 05:59:22;;;;;;;14.33;9.93;;;4.10;99.90;;;;;;5013098;28;20234;-67
2023/12/07 06:01:47;;;;;;;13.07;9.10;;;4.20;99.90;;;;;;5017870;28;20181;-67
2023/12/07 06:04:13;;;;;;;14.07;9.73;;;4.10;99.90;;;;;;5010249;28;20446;-67
2023/12/07 06:06:39;;;;;;;11.20;8.97;;;4.10;99.90;;;;;;5013497;28;20272;-67
2023/12/07 06:09:08;;;;;;;18.47;9.40;;;4.10;99.90;;;;;;5016847;28;20547;-67
2023/12/07 06:11:34;;;;;;;17.40;9.53;;;4.10;99.90;;;;;;5013635;28;20798;-67
2023/12/07 06:14:00;;;;;;;14.53;9.00;;;4.10;99.90;;;;;;5015616;28;20471;-67
2023/12/07 06:16:26;;;;;;;14.17;9.70;;;4.10;99.90;;;;;;5016106;28;20407;-67
2023/12/07 06:18:52;;;;;;;16.03;8.80;;;4.10;99.90;;;;;;5015226;28;20449;-67
2023/12/07 06:21:17;;;;;;;12.17;8.70;;;4.10;99.90;;;;;;5018818;28;20351;-67
2023/12/07 06:23:46;;;;;;;12.40;7.60;;;4.10;99.90;;;;;;5019528;28;20196;-68
2023/12/07 06:26:11;;;;;;;11.87;8.30;;;4.00;99.90;;;;;;5019785;28;20264;-67
2023/12/07 06:28:37;;;;;;;13.47;8.90;;;4.00;99.90;;;;;;5011980;28;20499;-67
2023/12/07 06:31:09;;;;;;;12.60;8.00;;;4.10;99.90;;;;;;5015540;28;20189;-67
2023/12/07 06:33:35;;;;;;;13.00;7.93;;;4.00;99.90;;;;;;5012163;28;20215;-67
2023/12/07 06:36:03;;;;;;;12.80;8.10;;;4.10;99.90;;;;;;5017420;28;20440;-67
2023/12/07 06:38:28;;;;;;;10.60;8.60;;;4.00;99.90;;;;;;5017009;28;20885;-66
2023/12/07 06:40:54;;;;;;;10.80;8.07;;;4.00;99.90;;;;;;5011907;28;20455;-66
2023/12/07 06:43:19;;;;;;;11.37;7.97;;;4.00;99.90;;;;;;5018933;28;20211;-66
2023/12/07 06:45:45;;;;;;;15.80;9.40;;;4.00;99.90;;;;;;5017652;28;20189;-66
2023/12/07 06:48:11;;;;;;;14.93;9.57;;;4.00;99.90;;;;;;5015985;28;20713;-67
2023/12/07 06:50:37;;;;;;;10.50;7.70;;;4.00;99.90;;;;;;5015490;28;20181;-67
2023/12/07 06:53:02;;;;;;;13.27;10.10;;;4.00;99.90;;;;;;5017864;28;20510;-67
2023/12/07 06:55:28;;;;;;;12.70;9.17;;;4.00;99.90;;;;;;5015538;28;20219;-66
2023/12/07 06:57:53;;;;;;;11.27;8.30;;;4.00;99.90;;;;;;5021544;28;20189;-67
2023/12/07 07:00:20;;;;;;;51.20;10.47;;;4.00;99.90;;;;;;5017395;28;20189;-67
2023/12/07 07:02:45;;;;;;;13.43;9.60;;;4.00;99.90;;;;;;5017201;28;20767;-67
2023/12/07 07:05:11;;;;;;;16.40;10.10;;;4.00;99.90;;;;;;5018710;28;20439;-67
2023/12/07 07:07:37;;;;;;;14.27;9.70;;;4.00;99.90;;;;;;5014814;28;20204;-67
2023/12/07 07:10:03;;;;;;;13.80;10.00;;;4.00;99.90;;;;;;5016350;28;20233;-67
2023/12/07 07:12:29;;;;;;;13.00;9.20;;;4.00;99.90;;;;;;5013793;28;20439;-67
2023/12/07 07:14:55;;;;;;;14.50;9.97;;;4.00;99.90;;;;;;5019258;28;20661;-67
2023/12/07 07:17:21;;;;;;;11.97;9.23;;;4.00;99.90;;;;;;5015128;28;20514;-66
2023/12/07 07:19:46;;;;;;;13.30;9.70;;;4.00;99.90;;;;;;5020067;28;20403;-66
2023/12/07 07:22:12;;;;;;;14.27;10.83;;;4.00;99.90;;;;;;5017419;28;20173;-67
2023/12/07 07:24:37;;;;;;;13.37;9.20;;;4.00;99.90;;;;;;5011250;28;20212;-67
2023/12/07 07:27:03;;;;;;;17.63;11.30;;;4.00;99.90;;;;;;5016901;28;20202;-67
2023/12/07 07:29:29;;;;;;;15.90;10.73;;;4.00;99.90;;;;;;5013751;28;20224;-66
2023/12/07 07:31:55;;;;;;;16.17;10.00;;;4.00;99.90;;;;;;5014874;28;20227;-67
2023/12/07 07:34:21;;;;;;;16.60;10.30;;;4.00;99.90;;;;;;5013716;28;20213;-67
2023/12/07 07:36:47;;;;;;;17.90;12.07;;;4.00;99.90;;;;;;5017821;28;20423;-67
2023/12/07 07:39:13;;;;;;;18.97;11.50;;;4.00;99.90;;;;;;5016514;28;20694;-67
2023/12/07 07:41:39;;;;;;;15.73;10.80;;;4.00;99.90;;;;;;5012946;28;20236;-67
2023/12/07 07:44:05;;;;;;;16.77;10.77;;;4.00;99.90;;;;;;5013048;28;20440;-67
2023/12/07 07:46:31;;;;;;;18.40;11.83;;;4.00;99.90;;;;;;5016285;28;20181;-67
2023/12/07 07:48:56;;;;;;;16.90;11.90;;;4.00;99.90;;;;;;5015732;28;20287;-67
2023/12/07 07:51:22;;;;;;;24.03;11.00;;;4.00;99.90;;;;;;5024095;28;20634;-67
2023/12/07 07:53:47;;;;;;;17.00;11.50;;;4.00;99.90;;;;;;5014690;28;20212;-67
2023/12/07 07:56:13;;;;;;;20.13;12.97;;;4.10;99.90;;;;;;5020518;28;20176;-67
2023/12/07 07:58:39;;;;;;;16.23;11.70;;;4.20;99.90;;;;;;5020104;28;20193;-67
2023/12/07 08:01:04;;;;;;;16.93;11.00;;;4.30;99.90;;;;;;5018246;28;20518;-67
2023/12/07 08:03:30;;;;;;;15.90;11.37;;;4.30;99.90;;;;;;5015644;28;20250;-67
2023/12/07 08:05:56;;;;;;;16.90;11.33;;;4.40;99.90;;;;;;5013326;28;20200;-67
2023/12/07 08:08:21;;;;;;;16.80;11.40;;;4.40;99.90;;;;;;5017101;28;20212;-67
2023/12/07 08:10:47;;;;;;;19.20;11.80;;;4.50;99.90;;;;;;5018846;28;20203;-67
2023/12/07 08:13:12;;;;;;;18.20;12.37;;;4.60;99.90;;;;;;5011335;28;20216;-67
2023/12/07 08:15:38;;;;;;;20.47;13.83;;;4.70;99.90;;;;;;5014138;28;20306;-68
2023/12/07 08:18:04;;;;;;;23.03;14.10;;;4.70;99.90;;;;;;5023273;28;20193;-67
2023/12/07 08:20:29;;;;;;;18.90;13.37;;;4.80;99.90;;;;;;5013492;28;20454;-68
2023/12/07 08:22:55;;;;;;;25.10;14.70;;;4.80;99.90;;;;;;5018107;28;20235;-68
2023/12/07 08:25:21;;;;;;;19.53;12.30;;;4.80;99.90;;;;;;5017594;28;20618;-68
2023/12/07 08:27:47;;;;;;;25.90;15.13;;;4.90;99.90;;;;;;5017068;28;20185;-67
2023/12/07 08:30:13;;;;;;;23.43;14.77;;;4.90;99.90;;;;;;5022214;28;21019;-67
2023/12/07 08:32:39;;;;;;;20.67;14.13;;;4.90;99.90;;;;;;5019186;28;20847;-67
2023/12/07 08:35:05;;;;;;;22.07;13.80;;;4.90;99.90;;;;;;5020361;28;20589;-67
2023/12/07 08:37:32;;;;;;;21.83;13.23;;;4.90;99.90;;;;;;5020126;28;20431;-67
2023/12/07 08:40:00;;;;;;;15.03;11.37;;;5.00;99.90;;;;;;5013608;28;20443;-67
2023/12/07 08:42:31;;;;;;;16.40;10.43;;;5.00;99.90;;;;;;5011406;28;20510;-66
2023/12/07 08:44:57;;;;;;;19.10;11.10;;;5.00;99.90;;;;;;5014758;28;20427;-67
2023/12/07 08:47:22;;;;;;;18.30;11.93;;;5.00;99.90;;;;;;5013415;28;20447;-67
2023/12/07 08:49:48;;;;;;;15.80;10.60;;;5.10;99.90;;;;;;5012455;28;20669;-67
2023/12/07 08:52:13;;;;;;;14.23;10.13;;;5.10;99.90;;;;;;5017918;28;20663;-67
2023/12/07 08:54:39;;;;;;;14.30;9.93;;;5.10;99.90;;;;;;5009004;28;20224;-67
2023/12/07 08:57:05;;;;;;;14.97;8.63;;;5.20;99.90;;;;;;5011340;28;20192;-66
2023/12/07 08:59:30;;;;;;;12.70;9.10;;;5.20;99.90;;;;;;5011905;28;20193;-67
2023/12/07 09:01:56;;;;;;;15.40;10.47;;;5.20;99.90;;;;;;5017998;28;20176;-68
2023/12/07 09:04:22;;;;;;;16.60;10.00;;;5.20;99.90;;;;;;5019784;28;20208;-67
2023/12/07 09:06:47;;;;;;;14.17;10.33;;;5.20;99.90;;;;;;5020483;28;20192;-68
2023/12/07 09:09:13;;;;;;;14.43;9.70;;;5.20;99.90;;;;;;5022474;28;20234;-68
2023/12/07 09:11:38;;;;;;;14.40;10.50;;;5.20;99.90;;;;;;5016917;28;20251;-68
2023/12/07 09:14:04;;;;;;;12.30;9.00;;;5.20;99.90;;;;;;5016555;28;20256;-67
2023/12/07 09:16:29;;;;;;;16.13;10.50;;;5.10;99.90;;;;;;5011747;28;20195;-68
2023/12/07 09:18:55;;;;;;;15.33;10.33;;;5.20;99.90;;;;;;5019202;28;20708;-68
2023/12/07 09:21:21;;;;;;;14.17;10.20;;;5.20;99.90;;;;;;5010076;28;20592;-67
2023/12/07 09:23:46;;;;;;;12.20;9.10;;;5.20;99.90;;;;;;5020219;28;20458;-66
2023/12/07 09:26:12;;;;;;;12.70;9.70;;;5.20;99.90;;;;;;5019342;28;20239;-67
2023/12/07 09:28:39;;;;;;;19.67;9.93;;;5.20;99.90;;;;;;5020091;28;20189;-67
2023/12/07 09:31:05;;;;;;;15.70;10.50;;;5.20;99.90;;;;;;5014606;28;20190;-67
2023/12/07 09:33:30;;;;;;;14.20;8.70;;;5.30;99.90;;;;;;5017116;28;20459;-66
2023/12/07 09:35:56;;;;;;;16.80;9.77;;;5.30;99.90;;;;;;5017760;28;20217;-66
2023/12/07 09:38:22;;;;;;;12.87;8.40;;;5.30;99.90;;;;;;5015851;28;20189;-65
2023/12/07 09:40:52;;;;;;;13.17;9.50;;;5.40;99.90;;;;;;5009853;28;20205;-66
2023/12/07 09:43:17;;;;;;;14.70;9.80;;;5.40;99.90;;;;;;5021391;28;20212;-66
2023/12/07 09:45:44;;;;;;;11.43;7.67;;;5.40;99.90;;;;;;5017879;28;20801;-66
2023/12/07 09:48:10;;;;;;;12.90;8.83;;;5.40;99.90;;;;;;5017502;28;20192;-68
2023/12/07 09:50:37;;;;;;;11.97;8.67;;;5.40;99.90;;;;;;5019993;28;20458;-67
2023/12/07 09:53:02;;;;;;;11.80;9.20;;;5.40;99.90;;;;;;5014828;28;20466;-67
2023/12/07 09:55:28;;;;;;;11.23;8.30;;;5.40;99.90;;;;;;5008859;28;20475;-67
2023/12/07 09:57:56;;;;;;;10.97;7.87;;;5.40;99.90;;;;;;5018535;28;20188;-68
2023/12/07 10:00:22;;;;;;;11.30;8.30;;;5.40;99.90;;;;;;5018563;28;20187;-66
2023/12/07 10:02:48;;;;;;;12.70;7.73;;;5.40;99.90;;;;;;5018281;28;20573;-66
2023/12/07 10:05:16;;;;;;;12.83;8.30;;;5.40;99.90;;;;;;5017005;28;20184;-67
2023/12/07 10:07:48;;;;;;;12.33;7.57;;;5.50;99.90;;;;;;5017943;28;20192;-67
2023/12/07 10:10:15;;;;;;;9.53;6.80;;;5.50;99.90;;;;;;5019951;28;20495;-67
2023/12/07 10:12:55;;;;;;;12.00;8.70;;;5.50;99.90;;;;;;5021631;28;20419;-67
2023/12/07 10:15:22;;;;;;;12.50;8.40;;;5.50;99.90;;;;;;5014371;28;20466;-67
2023/12/07 10:17:50;;;;;;;11.60;7.83;;;5.60;99.90;;;;;;5013010;28;20476;-67
2023/12/07 10:20:18;;;;;;;10.83;7.73;;;5.60;99.90;;;;;;5015134;28;20493;-67
2023/12/07 10:22:47;;;;;;;13.53;8.50;;;5.60;99.90;;;;;;5017880;28;20856;-68
2023/12/07 10:25:13;;;;;;;11.63;8.30;;;5.60;99.90;;;;;;5011721;28;20438;-68
2023/12/07 10:27:41;;;;;;;9.80;6.90;;;5.70;99.90;;;;;;5020649;28;20787;-68
2023/12/07 10:30:09;;;;;;;11.57;8.30;;;5.70;99.90;;;;;;5013636;28;20425;-67
2023/12/07 10:32:39;;;;;;;13.30;7.20;;;5.70;99.90;;;;;;5014539;28;20455;-68
2023/12/07 10:35:09;;;;;;;11.77;6.93;;;5.80;99.90;;;;;;5015431;28;20493;-67
2023/12/07 10:37:35;;;;;;;12.93;6.80;;;5.90;99.90;;;;;;5012259;28;20900;-67
2023/12/07 10:40:01;;;;;;;11.93;7.43;;;5.90;99.90;;;;;;5011823;28;20423;-68
2023/12/07 10:42:32;;;;;;;11.70;7.73;;;6.00;99.90;;;;;;5013163;28;20204;-69
2023/12/07 10:45:02;;;;;;;10.90;7.33;;;6.00;99.90;;;;;;5019955;28;20431;-69
2023/12/07 10:47:28;;;;;;;8.73;6.83;;;6.10;99.90;;;;;;5020601;28;20424;-69
2023/12/07 10:49:59;;;;;;;7.67;6.30;;;6.10;99.90;;;;;;5023414;28;20510;-68
2023/12/07 10:52:26;;;;;;;11.93;7.23;;;6.20;99.90;;;;;;5025040;28;20419;-67
2023/12/07 10:55:03;;;;;;;9.80;6.50;;;6.30;99.90;;;;;;5025277;28;21855;-68
2023/12/07 10:57:32;;;;;;;9.60;6.47;;;6.30;99.90;;;;;;5017192;28;20425;-68
2023/12/07 11:00:00;;;;;;;8.67;6.40;;;6.40;99.90;;;;;;5019436;28;20538;-68
2023/12/07 11:02:27;;;;;;;8.93;6.50;;;6.40;99.90;;;;;;5022407;28;20431;-68
2023/12/07 11:04:56;;;;;;;6.27;5.60;;;6.50;99.90;;;;;;5025287;28;20433;-68
2023/12/07 11:07:25;;;;;;;8.03;6.10;;;6.60;99.90;;;;;;5022395;28;20449;-68
2023/12/07 11:10:01;;;;;;;6.87;5.03;;;6.60;99.90;;;;;;5018846;28;20451;-67
2023/12/07 11:12:53;;;;;;;9.13;5.40;;;6.70;99.90;;;;;;5028540;28;20425;-67
2023/12/07 11:15:19;;;;;;;14.40;5.17;;;6.70;99.90;;;;;;5023451;28;20501;-68
2023/12/07 11:17:56;;;;;;;8.23;6.00;;;6.90;99.90;;;;;;5024228;28;20418;-68
2023/12/07 11:20:40;;;;;;;7.10;4.93;;;6.90;99.90;;;;;;5023622;28;20957;-68
2023/12/07 11:23:07;;;;;;;8.17;5.27;;;7.00;99.90;;;;;;5021173;28;20540;-68
2023/12/07 11:25:33;;;;;;;8.70;5.90;;;7.10;99.90;;;;;;5024946;28;20776;-68
2023/12/07 11:28:06;;;;;;;8.87;6.20;;;7.10;99.90;;;;;;5019689;28;20433;-68
2023/12/07 11:30:35;;;;;;;10.40;5.57;;;7.20;99.90;;;;;;5015379;28;20219;-66
2023/12/07 11:33:03;;;;;;;7.30;5.03;;;7.30;99.90;;;;;;5010727;28;20542;-67
2023/12/07 11:35:28;;;;;;;7.70;5.10;;;7.40;99.90;;;;;;5015286;28;20485;-68
2023/12/07 11:38:08;;;;;;;9.20;5.63;;;7.50;99.90;;;;;;5010696;28;20978;-68
2023/12/07 11:40:41;;;;;;;6.30;4.47;;;7.70;99.90;;;;;;5012682;28;20176;-68
2023/12/07 11:43:07;;;;;;;4.30;3.10;;;7.80;99.90;;;;;;5010139;28;20446;-69
2023/12/07 11:45:53;;;;;;;5.30;3.50;;;8.00;99.90;;;;;;5014077;28;20419;-69
2023/12/07 11:48:18;;;;;;;5.37;3.00;;;8.30;99.90;;;;;;5012617;28;20452;-68
2023/12/07 11:51:05;;;;;;;5.30;4.07;;;8.60;99.90;;;;;;5011148;28;20956;-69
2023/12/07 11:53:32;;;;;;;5.87;3.67;;;9.00;99.90;;;;;;5014752;28;20210;-68
2023/12/07 11:56:00;;;;;;;4.20;3.40;;;9.30;99.90;;;;;;5012781;28;20470;-68
2023/12/07 11:58:27;;;;;;;7.30;3.53;;;9.40;99.90;;;;;;5011692;28;20415;-68
2023/12/07 12:00:54;;;;;;;6.20;4.10;;;10.00;99.90;;;;;;5017613;28;20420;-67
2023/12/07 12:03:20;;;;;;;5.90;4.30;;;10.90;99.90;;;;;;5020865;28;20489;-69
2023/12/07 12:05:46;;;;;;;6.73;4.63;;;11.30;99.90;;;;;;5019253;28;20422;-68
2023/12/07 12:08:12;;;;;;;4.50;3.77;;;11.30;99.90;;;;;;5022407;28;20443;-67
2023/12/07 12:10:42;;;;;;;5.27;4.20;;;11.50;99.90;;;;;;5023233;28;20514;-67
2023/12/07 12:13:08;;;;;;;8.17;4.70;;;11.80;99.90;;;;;;5020036;28;20290;-68
2023/12/07 12:15:34;;;;;;;4.77;4.07;;;12.10;99.90;;;;;;5020081;28;21052;-68
2023/12/07 12:18:00;;;;;;;5.10;3.63;;;12.80;99.90;;;;;;5019561;28;20514;-68
2023/12/07 12:20:27;;;;;;;5.03;3.57;;;13.60;99.90;;;;;;5030458;28;20270;-68
2023/12/07 12:22:53;;;;;;;9.03;6.00;;;14.40;99.90;;;;;;5013464;28;20463;-69
2023/12/07 12:25:30;;;;;;;8.33;6.00;;;14.90;99.90;;;;;;5028726;28;20442;-67
2023/12/07 12:28:06;;;;;;;3.73;3.33;;;15.50;99.90;;;;;;5024291;28;20407;-67
2023/12/07 12:30:33;;;;;;;4.47;3.67;;;15.80;98.20;;;;;;5024701;28;20859;-68
2023/12/07 12:33:02;;;;;;;4.63;3.77;;;16.30;97.00;;;;;;5021409;28;20944;-68
2023/12/07 12:35:28;;;;;;;6.13;3.60;;;16.70;95.30;;;;;;5022659;28;20569;-69
2023/12/07 12:37:55;;;;;;;4.53;3.63;;;17.10;94.50;;;;;;5026773;28;20419;-69
2023/12/07 12:40:22;;;;;;;4.67;3.30;;;17.40;91.90;;;;;;5024827;28;20819;-68